Trinity, Kentucky
Current Conditions -  °F | °C
As of 11:35 AM on Friday 21 Nov 2014 (Local Time) from KFGX Reporting Station
Clear Clear  
Wind Chill: 28°   Ceiling: Unl
Heat Index: 28°   Visibility: 10mi
Dew Point:   Wind: 0mph
Humidity: 42%   Direction: NA
Pressure: 30.54"   Gusts: NA
Location:  38.4929°N, 83.3898°W
Report Text: KFGX 211635Z AUTO 00000KT 10SM CLR M02/M14 A3054 RMK AO2 T10231136
Loading
Personal Weather Stations






























Interactive Weather Map New forecast layout! Learn more

10-Day Weather Forecast

Advertisements
Track Severe Weather on mobile